createdAt,value
2018-03-28T00:01:21.571Z,0.90
2018-03-28T00:03:48.954Z,1.00
2018-03-28T00:06:16.290Z,1.00
2018-03-28T00:08:44.574Z,0.80
2018-03-28T00:11:12.331Z,0.70
2018-03-28T00:13:40.231Z,0.70
2018-03-28T00:16:09.630Z,0.70
2018-03-28T00:18:37.591Z,0.70
2018-03-28T00:21:05.435Z,0.60
2018-03-28T00:23:33.307Z,0.50
2018-03-28T00:26:01.415Z,0.50
2018-03-28T00:28:29.607Z,0.50
2018-03-28T00:30:57.887Z,0.40
2018-03-28T00:33:26.068Z,0.30
2018-03-28T00:35:54.846Z,0.30
2018-03-28T00:38:23.048Z,0.30
2018-03-28T00:40:50.794Z,0.30
2018-03-28T00:43:18.967Z,0.20
2018-03-28T00:45:46.415Z,0.20
2018-03-28T00:48:13.946Z,0.40
2018-03-28T00:50:41.486Z,0.50
2018-03-28T00:53:08.949Z,0.50
2018-03-28T00:55:36.287Z,0.50
2018-03-28T00:58:04.026Z,0.50
2018-03-28T01:00:31.647Z,0.60
2018-03-28T01:02:59.166Z,0.60
2018-03-28T01:05:27.506Z,0.70
2018-03-28T01:07:55.147Z,0.70
2018-03-28T01:10:23.487Z,0.80
2018-03-28T01:12:51.847Z,0.80
2018-03-28T01:15:19.666Z,0.80
2018-03-28T01:17:47.167Z,0.80
2018-03-28T01:20:15.368Z,0.80
2018-03-28T01:22:43.766Z,0.80
2018-03-28T01:25:12.068Z,0.80
2018-03-28T01:27:39.907Z,0.80
2018-03-28T01:30:07.646Z,0.80
2018-03-28T01:32:34.946Z,0.80
2018-03-28T01:35:02.926Z,0.90
2018-03-28T01:37:30.426Z,0.80
2018-03-28T01:39:57.726Z,0.60
2018-03-28T01:42:25.566Z,0.40
2018-03-28T01:44:55.590Z,0.30
2018-03-28T01:47:23.087Z,0.30
2018-03-28T01:49:51.206Z,0.40
2018-03-28T01:52:18.647Z,0.40
2018-03-28T01:54:46.908Z,0.50
2018-03-28T01:57:14.526Z,0.50
2018-03-28T01:59:42.188Z,0.50
2018-03-28T02:02:09.950Z,0.50
2018-03-28T02:04:37.746Z,0.40
2018-03-28T02:07:06.028Z,0.20
2018-03-28T02:09:33.689Z,-0.20
2018-03-28T02:12:01.126Z,-0.40
2018-03-28T02:14:28.787Z,-0.30
2018-03-28T02:16:56.427Z,-0.20
2018-03-28T02:19:24.610Z,-0.10
2018-03-28T02:21:52.552Z,0.00
2018-03-28T02:24:20.007Z,0.10
2018-03-28T02:26:47.326Z,0.10
2018-03-28T02:29:14.935Z,0.20
2018-03-28T02:31:43.015Z,0.20
2018-03-28T02:34:11.106Z,0.00
2018-03-28T02:36:38.588Z,-0.20
2018-03-28T02:39:06.906Z,-0.50
2018-03-28T02:41:34.429Z,-0.50
2018-03-28T02:44:01.876Z,-0.40
2018-03-28T02:48:43.926Z,0.00
2018-03-28T02:51:11.880Z,0.00
2018-03-28T02:53:40.176Z,-0.10
2018-03-28T02:56:09.046Z,-0.20
2018-03-28T02:58:37.047Z,-0.20
2018-03-28T03:01:04.466Z,-0.30
2018-03-28T03:03:32.668Z,-0.40
2018-03-28T03:06:01.547Z,-0.50
2018-03-28T03:08:30.528Z,-0.60
2018-03-28T03:10:58.646Z,-0.60
2018-03-28T03:13:26.026Z,-0.60
2018-03-28T03:15:53.473Z,-0.60
2018-03-28T03:18:20.909Z,-0.70
2018-03-28T03:20:48.546Z,-0.70
2018-03-28T03:23:15.967Z,-0.60
2018-03-28T03:25:43.366Z,-0.50
2018-03-28T03:28:11.066Z,-0.30
2018-03-28T03:30:38.447Z,-0.40
2018-03-28T03:33:05.768Z,-0.50
2018-03-28T03:35:33.268Z,-0.40
2018-03-28T03:38:01.066Z,-0.50
2018-03-28T03:40:29.407Z,-0.20
2018-03-28T03:42:56.926Z,-0.20
2018-03-28T03:45:24.337Z,-0.10
2018-03-28T03:47:52.306Z,-0.10
2018-03-28T03:50:20.487Z,0.00
2018-03-28T03:52:49.186Z,0.00
2018-03-28T03:55:17.427Z,-0.10
2018-03-28T03:57:45.068Z,-0.10
2018-03-28T04:00:12.386Z,-0.10
2018-03-28T04:02:39.826Z,-0.10
2018-03-28T04:05:07.354Z,0.00
2018-03-28T04:07:35.246Z,0.10
2018-03-28T04:10:02.495Z,0.20
2018-03-28T04:12:30.067Z,0.30
2018-03-28T04:14:57.546Z,0.40
2018-03-28T04:17:25.487Z,0.40
2018-03-28T04:19:53.368Z,0.50
2018-03-28T04:22:21.626Z,0.50
2018-03-28T04:24:49.807Z,0.40
2018-03-28T04:27:17.393Z,0.40
2018-03-28T04:29:44.732Z,0.40
2018-03-28T04:32:12.349Z,0.50
2018-03-28T04:34:40.466Z,0.60
2018-03-28T04:37:08.127Z,0.60
2018-03-28T04:39:35.907Z,0.60
2018-03-28T04:42:03.487Z,0.70
2018-03-28T04:44:31.268Z,0.70
2018-03-28T04:46:58.847Z,0.80
2018-03-28T04:49:27.006Z,0.90
2018-03-28T04:51:54.328Z,0.90
2018-03-28T04:54:22.415Z,1.00
2018-03-28T04:56:49.807Z,1.00
2018-03-28T04:59:17.128Z,1.00
2018-03-28T05:01:44.509Z,1.10
2018-03-28T05:04:12.212Z,1.10
2018-03-28T05:06:40.509Z,1.20
2018-03-28T05:09:08.126Z,1.20
2018-03-28T05:11:36.926Z,1.30
2018-03-28T05:14:04.347Z,1.30
2018-03-28T05:16:31.646Z,1.40
2018-03-28T05:18:59.026Z,1.40
2018-03-28T05:21:26.506Z,1.50
2018-03-28T05:23:54.247Z,1.50
2018-03-28T05:26:22.606Z,1.60
2018-03-28T05:28:50.206Z,1.60
2018-03-28T05:31:17.492Z,1.60
2018-03-28T05:33:45.246Z,1.70
2018-03-28T05:36:12.646Z,1.70
2018-03-28T05:38:40.246Z,1.80
2018-03-28T05:41:07.709Z,1.80
2018-03-28T05:43:35.614Z,1.80
2018-03-28T05:46:03.488Z,1.90
2018-03-28T05:48:31.214Z,1.90
2018-03-28T05:50:58.686Z,2.00
2018-03-28T05:53:26.367Z,2.00
2018-03-28T05:55:53.880Z,2.10
2018-03-28T05:58:21.126Z,2.10
2018-03-28T06:00:48.468Z,2.30
2018-03-28T06:03:15.968Z,2.40
2018-03-28T06:05:44.761Z,2.60
2018-03-28T06:08:12.088Z,2.90
2018-03-28T06:10:40.347Z,3.10
2018-03-28T06:13:08.068Z,3.30
2018-03-28T06:15:35.646Z,3.50
2018-03-28T06:18:03.806Z,3.80
2018-03-28T06:20:31.187Z,4.10
2018-03-28T06:22:58.846Z,4.40
2018-03-28T06:25:26.186Z,4.70
2018-03-28T06:27:53.466Z,5.10
2018-03-28T06:30:20.991Z,5.40
2018-03-28T06:32:48.568Z,5.60
2018-03-28T06:35:15.946Z,5.60
2018-03-28T06:37:44.180Z,5.30
2018-03-28T06:40:11.511Z,5.20
2018-03-28T06:42:38.757Z,5.20
2018-03-28T06:45:06.507Z,5.20
2018-03-28T06:47:36.779Z,5.30
2018-03-28T06:50:04.399Z,5.40
2018-03-28T06:52:35.791Z,6.20
2018-03-28T06:55:06.119Z,6.10
2018-03-28T06:57:38.606Z,6.50
2018-03-28T07:00:05.912Z,6.80
2018-03-28T07:02:33.090Z,7.20
2018-03-28T07:05:00.382Z,7.60
2018-03-28T07:07:27.684Z,7.80
2018-03-28T07:09:54.882Z,7.90
2018-03-28T07:12:22.446Z,7.80
2018-03-28T07:14:50.026Z,8.00
2018-03-28T07:17:17.306Z,8.00
2018-03-28T07:19:44.690Z,8.10
2018-03-28T07:22:13.609Z,8.00
2018-03-28T07:24:41.680Z,7.90
2018-03-28T07:27:08.930Z,7.90
2018-03-28T07:29:36.270Z,7.80
2018-03-28T07:32:03.546Z,7.90
2018-03-28T07:34:30.767Z,8.00
2018-03-28T07:36:58.110Z,8.00
2018-03-28T07:39:25.430Z,8.10
2018-03-28T07:41:52.707Z,8.60
2018-03-28T07:44:19.988Z,9.10
2018-03-28T07:46:47.274Z,9.50
2018-03-28T07:49:14.534Z,9.50
2018-03-28T07:51:41.843Z,9.40
2018-03-28T07:54:10.066Z,8.90
2018-03-28T07:56:37.515Z,8.60
2018-03-28T07:59:04.865Z,8.30
2018-03-28T08:01:32.176Z,8.00
2018-03-28T08:03:59.375Z,7.80
2018-03-28T08:06:26.717Z,7.70
2018-03-28T08:08:53.955Z,7.60
2018-03-28T08:11:21.256Z,7.70
2018-03-28T08:13:49.356Z,7.80
2018-03-28T08:16:16.635Z,7.80
2018-03-28T08:18:43.960Z,8.00
2018-03-28T08:21:11.257Z,8.30
2018-03-28T08:23:38.615Z,8.40
2018-03-28T08:26:05.879Z,8.50
2018-03-28T08:28:33.116Z,8.70
2018-03-28T08:31:00.398Z,8.80
2018-03-28T08:33:27.736Z,8.80
2018-03-28T08:35:54.996Z,8.60
2018-03-28T08:38:22.318Z,8.60
2018-03-28T08:40:50.058Z,8.70
2018-03-28T08:43:17.864Z,8.90
2018-03-28T08:45:45.796Z,9.00
2018-03-28T08:48:13.597Z,9.10
2018-03-28T08:50:41.357Z,9.10
2018-03-28T08:53:09.096Z,9.40
2018-03-28T08:55:36.758Z,9.60
2018-03-28T08:58:05.325Z,9.70
2018-03-28T09:00:33.796Z,9.90
2018-03-28T09:03:01.596Z,9.90
2018-03-28T09:05:29.316Z,10.60
2018-03-28T09:07:57.117Z,11.40
2018-03-28T09:12:56.795Z,11.60
2018-03-28T09:18:01.377Z,11.80
2018-03-28T09:20:28.636Z,12.10
2018-03-28T09:22:56.396Z,12.70
2018-03-28T09:25:24.187Z,12.90
2018-03-28T09:27:51.984Z,13.50
2018-03-28T09:30:19.778Z,13.60
2018-03-28T09:32:47.515Z,12.90
2018-03-28T09:35:15.275Z,12.60
2018-03-28T09:37:43.011Z,12.50
2018-03-28T09:40:10.836Z,12.50
2018-03-28T09:42:38.658Z,12.70
2018-03-28T09:45:07.243Z,13.20
2018-03-28T09:47:35.001Z,13.10
2018-03-28T09:50:02.757Z,13.60
2018-03-28T09:52:30.495Z,14.00
2018-03-28T09:54:58.257Z,13.80
2018-03-28T09:57:26.837Z,13.50
2018-03-28T09:59:54.117Z,13.50
2018-03-28T10:02:28.717Z,13.30
2018-03-28T10:05:06.437Z,13.30
2018-03-28T10:07:34.196Z,12.80
2018-03-28T10:10:02.762Z,12.90
2018-03-28T10:12:30.077Z,12.90
2018-03-28T10:14:57.397Z,13.20
2018-03-28T10:17:25.313Z,13.10
2018-03-28T10:19:53.223Z,13.10
2018-03-28T10:22:20.575Z,13.10
2018-03-28T10:24:47.888Z,13.30
2018-03-28T10:27:15.688Z,13.40
2018-03-28T10:29:43.532Z,13.40
2018-03-28T10:32:12.524Z,13.40
2018-03-28T10:34:40.569Z,13.40
2018-03-28T10:37:09.239Z,13.30
2018-03-28T10:39:36.651Z,13.30
2018-03-28T10:42:03.933Z,13.20
2018-03-28T10:44:31.289Z,13.00
2018-03-28T10:46:59.665Z,12.90
2018-03-28T10:49:27.032Z,13.10
2018-03-28T10:51:54.351Z,13.20
2018-03-28T10:54:21.676Z,13.50
2018-03-28T10:56:49.448Z,13.70
2018-03-28T10:59:17.411Z,13.90
2018-03-28T11:01:44.822Z,13.90
2018-03-28T11:04:12.288Z,13.70
2018-03-28T11:06:39.661Z,13.70
2018-03-28T11:09:07.071Z,13.80
2018-03-28T11:11:34.332Z,13.90
2018-03-28T11:14:02.128Z,13.90
2018-03-28T11:16:29.887Z,13.40
2018-03-28T11:18:57.697Z,13.20
2018-03-28T11:21:25.448Z,13.20
2018-03-28T11:23:54.006Z,13.30
2018-03-28T11:26:21.748Z,13.30
2018-03-28T11:28:49.516Z,13.30
2018-03-28T11:31:17.287Z,13.40
2018-03-28T11:33:45.068Z,13.50
2018-03-28T11:36:12.366Z,13.30
2018-03-28T11:38:39.706Z,13.10
2018-03-28T11:41:06.986Z,13.10
2018-03-28T11:43:34.286Z,13.10
2018-03-28T11:46:01.527Z,13.00
2018-03-28T11:48:28.789Z,13.10
2018-03-28T11:50:56.300Z,13.10
2018-03-28T11:53:23.711Z,13.20
2018-03-28T11:55:51.631Z,13.00
2018-03-28T11:58:20.533Z,13.00
2018-03-28T12:00:48.648Z,13.10
2018-03-28T12:03:16.586Z,13.30
2018-03-28T12:05:44.413Z,13.50
2018-03-28T12:08:12.207Z,13.50
2018-03-28T12:10:40.263Z,13.60
2018-03-28T12:13:08.208Z,13.60
2018-03-28T12:15:39.306Z,13.60
2018-03-28T12:18:07.833Z,13.70
2018-03-28T12:20:35.751Z,13.80
2018-03-28T12:23:04.053Z,13.90
2018-03-28T12:25:32.173Z,13.50
2018-03-28T12:28:00.072Z,13.20
2018-03-28T12:30:29.022Z,12.70
2018-03-28T12:32:57.253Z,12.50
2018-03-28T12:35:24.778Z,12.50
2018-03-28T12:37:52.733Z,12.20
2018-03-28T12:40:20.692Z,12.00
2018-03-28T12:42:48.712Z,11.90
2018-03-28T12:45:16.592Z,11.90
2018-03-28T12:47:44.433Z,11.90
2018-03-28T12:50:12.231Z,12.00
2018-03-28T12:52:40.325Z,12.20
2018-03-28T12:55:07.691Z,12.40
2018-03-28T12:57:35.311Z,12.70
2018-03-28T13:00:03.114Z,12.90
2018-03-28T13:02:30.986Z,13.20
2018-03-28T13:04:58.912Z,13.40
2018-03-28T13:07:26.373Z,13.50
2018-03-28T13:09:53.871Z,13.70
2018-03-28T13:12:21.192Z,13.90
2018-03-28T13:14:48.680Z,13.90
2018-03-28T13:17:16.839Z,13.80
2018-03-28T13:19:44.953Z,13.80
2018-03-28T13:22:12.459Z,13.70
2018-03-28T13:24:40.332Z,13.50
2018-03-28T13:27:08.572Z,13.40
2018-03-28T13:29:36.039Z,13.40
2018-03-28T13:32:03.511Z,13.30
2018-03-28T13:34:31.911Z,13.40
2018-03-28T13:36:59.296Z,13.30
2018-03-28T13:39:27.512Z,13.50
2018-03-28T13:41:55.037Z,13.40
2018-03-28T13:44:22.374Z,13.40
2018-03-28T13:46:49.889Z,13.30
2018-03-28T13:49:17.311Z,13.30
2018-03-28T13:51:44.630Z,13.40
2018-03-28T13:54:12.010Z,13.60
2018-03-28T13:56:39.598Z,13.80
2018-03-28T13:59:06.932Z,14.00
2018-03-28T14:01:34.818Z,14.00
2018-03-28T14:04:02.349Z,13.90
2018-03-28T14:06:29.729Z,13.80
2018-03-28T14:08:57.150Z,13.60
2018-03-28T14:11:24.776Z,13.70
2018-03-28T14:13:52.189Z,13.60
2018-03-28T14:16:19.613Z,13.60
2018-03-28T14:18:47.009Z,13.60
2018-03-28T14:21:14.473Z,13.60
2018-03-28T14:23:43.098Z,13.60
2018-03-28T14:26:10.533Z,13.60
2018-03-28T14:28:38.056Z,13.60
2018-03-28T14:31:05.894Z,13.50
2018-03-28T14:33:34.269Z,13.50
2018-03-28T14:36:01.610Z,13.50
2018-03-28T14:38:29.949Z,13.40
2018-03-28T14:40:58.091Z,13.30
2018-03-28T14:43:25.736Z,13.30
2018-03-28T14:45:53.250Z,13.20
2018-03-28T14:48:20.689Z,13.10
2018-03-28T14:50:48.797Z,13.10
2018-03-28T14:53:16.349Z,13.10
2018-03-28T14:55:43.901Z,13.00
2018-03-28T14:58:12.173Z,13.00
2018-03-28T15:00:39.740Z,13.00
2018-03-28T15:03:07.175Z,12.80
2018-03-28T15:05:34.688Z,12.80
2018-03-28T15:08:02.057Z,12.60
2018-03-28T15:10:29.589Z,12.50
2018-03-28T15:12:57.157Z,12.50
2018-03-28T15:15:25.230Z,12.50
2018-03-28T15:17:54.430Z,12.50
2018-03-28T15:20:21.970Z,12.50
2018-03-28T15:22:49.493Z,12.50
2018-03-28T15:25:17.029Z,12.50
2018-03-28T15:27:44.489Z,12.50
2018-03-28T15:30:11.928Z,12.50
2018-03-28T15:32:40.683Z,12.50
2018-03-28T15:35:08.015Z,12.50
2018-03-28T15:37:35.370Z,12.50
2018-03-28T15:42:03.617Z,12.40
2018-03-28T15:44:31.728Z,12.20
2018-03-28T15:46:59.106Z,12.20
2018-03-28T15:49:26.977Z,12.10
2018-03-28T15:51:55.913Z,12.00
2018-03-28T15:54:23.305Z,12.00
2018-03-28T15:56:51.381Z,12.00
2018-03-28T15:59:19.537Z,11.80
2018-03-28T16:01:47.908Z,11.90
2018-03-28T16:04:15.910Z,11.70
2018-03-28T16:06:43.887Z,11.70
2018-03-28T16:09:12.651Z,11.60
2018-03-28T16:11:41.555Z,11.50
2018-03-28T16:14:10.112Z,11.40
2018-03-28T16:16:39.453Z,11.30
2018-03-28T16:19:08.490Z,11.30
2018-03-28T16:21:36.310Z,11.20
2018-03-28T16:24:05.032Z,11.20
2018-03-28T16:26:33.170Z,11.10
2018-03-28T16:29:00.605Z,11.10
2018-03-28T16:31:28.073Z,11.10
2018-03-28T16:33:55.529Z,11.00
2018-03-28T16:36:22.925Z,10.90
2018-03-28T16:38:50.251Z,10.80
2018-03-28T16:41:17.729Z,10.70
2018-03-28T16:43:45.134Z,10.60
2018-03-28T16:46:12.455Z,10.60
2018-03-28T16:48:40.178Z,10.70
2018-03-28T16:51:08.701Z,10.60
2018-03-28T16:53:36.290Z,10.60
2018-03-28T16:56:03.625Z,10.50
2018-03-28T16:58:31.231Z,10.10
2018-03-28T17:00:58.991Z,9.60
2018-03-28T17:03:26.331Z,9.60
2018-03-28T17:05:53.730Z,9.70
2018-03-28T17:08:21.056Z,9.80
2018-03-28T17:10:48.447Z,9.90
2018-03-28T17:13:17.333Z,10.00
2018-03-28T17:15:44.808Z,10.10
2018-03-28T17:18:12.288Z,10.00
2018-03-28T17:20:39.627Z,10.10
2018-03-28T17:23:07.188Z,10.10
2018-03-28T17:25:34.590Z,10.10
2018-03-28T17:28:01.957Z,10.10
2018-03-28T17:30:29.507Z,10.10
2018-03-28T17:32:57.156Z,10.20
2018-03-28T17:35:24.447Z,10.10
2018-03-28T17:37:51.867Z,10.00
2018-03-28T17:40:19.216Z,9.90
2018-03-28T17:42:46.686Z,9.90
2018-03-28T17:45:14.086Z,9.90
2018-03-28T17:47:41.448Z,9.80
2018-03-28T17:50:09.642Z,9.80
2018-03-28T17:52:47.450Z,9.70
2018-03-28T17:55:17.228Z,9.70
2018-03-28T17:57:46.730Z,9.80
2018-03-28T18:00:16.225Z,9.70
2018-03-28T18:02:43.526Z,9.70
2018-03-28T18:05:11.633Z,9.60
2018-03-28T18:07:41.312Z,9.60
2018-03-28T18:10:08.689Z,9.60
2018-03-28T18:12:36.361Z,9.50
2018-03-28T18:15:04.636Z,9.50
2018-03-28T18:17:33.188Z,9.50
2018-03-28T18:20:03.131Z,9.40
2018-03-28T18:22:31.971Z,9.40
2018-03-28T18:25:03.316Z,9.40
2018-03-28T18:27:40.877Z,9.30
2018-03-28T18:30:10.995Z,9.30
2018-03-28T18:32:38.412Z,9.20
2018-03-28T18:35:05.896Z,9.20
2018-03-28T18:37:34.176Z,9.20
2018-03-28T18:40:01.636Z,9.20
2018-03-28T18:42:28.972Z,9.20
2018-03-28T18:44:56.475Z,9.20
2018-03-28T18:47:23.914Z,9.20
2018-03-28T18:49:51.477Z,9.20
2018-03-28T18:52:18.855Z,9.10
2018-03-28T18:54:46.750Z,9.10
2018-03-28T18:59:46.227Z,9.20
2018-03-28T19:02:16.150Z,9.20
2018-03-28T19:04:44.127Z,9.20
2018-03-28T19:07:11.610Z,9.10
2018-03-28T19:09:40.979Z,9.10
2018-03-28T19:12:10.220Z,9.10
2018-03-28T19:14:38.070Z,9.00
2018-03-28T19:17:05.517Z,8.90
2018-03-28T19:19:33.110Z,8.80
2018-03-28T19:22:00.491Z,8.70
2018-03-28T19:24:27.808Z,8.70
2018-03-28T19:26:55.327Z,8.60
2018-03-28T19:29:22.731Z,8.50
2018-03-28T19:31:50.690Z,8.50
2018-03-28T19:34:18.528Z,8.50
2018-03-28T19:36:47.128Z,8.50
2018-03-28T19:39:15.172Z,8.40
2018-03-28T19:41:42.532Z,8.40
2018-03-28T19:44:14.509Z,8.40
2018-03-28T19:46:41.893Z,8.40
2018-03-28T19:49:09.335Z,8.40
2018-03-28T19:51:36.633Z,8.40
2018-03-28T19:54:04.074Z,8.40
2018-03-28T19:56:31.439Z,8.40
2018-03-28T19:58:58.893Z,8.30
2018-03-28T20:01:26.693Z,8.30
2018-03-28T20:03:54.210Z,8.30
2018-03-28T20:06:22.018Z,8.30
2018-03-28T20:08:49.785Z,8.20
2018-03-28T20:11:17.126Z,7.90
2018-03-28T20:13:44.636Z,7.60
2018-03-28T20:16:12.988Z,7.40
2018-03-28T20:18:40.370Z,7.10
2018-03-28T20:21:08.048Z,7.10
2018-03-28T20:23:35.571Z,7.20
2018-03-28T20:26:02.867Z,7.20
2018-03-28T20:28:30.370Z,7.30
2018-03-28T20:30:57.895Z,7.30
2018-03-28T20:33:25.274Z,7.30
2018-03-28T20:35:52.930Z,7.40
2018-03-28T20:38:20.314Z,7.50
2018-03-28T20:40:48.467Z,7.60
2018-03-28T20:43:15.932Z,7.80
2018-03-28T20:45:44.129Z,8.00
2018-03-28T20:48:11.467Z,8.00
2018-03-28T20:50:38.861Z,8.10
2018-03-28T20:53:06.186Z,8.10
2018-03-28T20:55:33.869Z,8.10
2018-03-28T20:58:01.386Z,8.00
2018-03-28T21:00:29.446Z,8.00
2018-03-28T21:02:57.605Z,8.00
2018-03-28T21:05:25.047Z,8.00
2018-03-28T21:07:52.429Z,8.00
2018-03-28T21:10:19.954Z,7.90
2018-03-28T21:12:47.334Z,7.90
2018-03-28T21:15:15.167Z,7.90
2018-03-28T21:17:42.587Z,7.90
2018-03-28T21:20:10.106Z,7.90
2018-03-28T21:22:38.247Z,7.90
2018-03-28T21:25:05.455Z,7.90
2018-03-28T21:27:32.987Z,8.00
2018-03-28T21:30:00.406Z,8.00
2018-03-28T21:32:27.810Z,8.00
2018-03-28T21:34:55.267Z,8.10
2018-03-28T21:37:22.626Z,8.10
2018-03-28T21:39:50.047Z,8.20
2018-03-28T21:42:17.468Z,8.30
2018-03-28T21:44:44.766Z,8.30
2018-03-28T21:47:12.286Z,8.20
2018-03-28T21:49:39.967Z,8.20
2018-03-28T21:52:07.366Z,8.10
2018-03-28T21:54:34.886Z,8.10
2018-03-28T21:57:02.286Z,8.10
2018-03-28T21:59:29.593Z,8.00
2018-03-28T22:01:57.108Z,8.00
2018-03-28T22:04:24.610Z,8.00
2018-03-28T22:06:52.128Z,8.00
2018-03-28T22:09:19.708Z,8.00
2018-03-28T22:14:19.808Z,8.00
2018-03-28T22:16:47.979Z,8.00
2018-03-28T22:19:15.808Z,8.00
2018-03-28T22:21:44.109Z,8.00
2018-03-28T22:24:11.988Z,8.00
2018-03-28T22:26:39.410Z,7.90
2018-03-28T22:29:06.689Z,7.90
2018-03-28T22:31:34.389Z,7.90
2018-03-28T22:34:02.228Z,7.90
2018-03-28T22:36:29.568Z,7.90
2018-03-28T22:38:56.948Z,8.00
2018-03-28T22:41:24.448Z,7.90
2018-03-28T22:43:51.969Z,8.00
2018-03-28T22:46:19.489Z,8.00
2018-03-28T22:48:47.768Z,8.00
2018-03-28T22:51:15.170Z,8.10
2018-03-28T22:53:43.328Z,8.10
2018-03-28T22:56:12.371Z,8.10
2018-03-28T22:58:40.168Z,8.10
2018-03-28T23:01:07.669Z,8.10
2018-03-28T23:03:35.389Z,8.10
2018-03-28T23:06:02.829Z,7.90
2018-03-28T23:08:30.488Z,7.80
2018-03-28T23:10:57.908Z,7.70
2018-03-28T23:13:25.288Z,7.60
2018-03-28T23:15:52.653Z,7.60
2018-03-28T23:18:20.768Z,7.60
2018-03-28T23:20:49.248Z,7.60
2018-03-28T23:25:48.769Z,7.60
2018-03-28T23:28:17.248Z,7.60
2018-03-28T23:30:44.649Z,7.60
2018-03-28T23:33:12.308Z,7.60
2018-03-28T23:35:39.832Z,7.60
2018-03-28T23:38:07.348Z,7.70
2018-03-28T23:40:34.747Z,7.70
2018-03-28T23:43:02.176Z,7.70
2018-03-28T23:45:29.578Z,7.70
2018-03-28T23:47:57.029Z,7.70
2018-03-28T23:50:24.608Z,7.70
2018-03-28T23:52:51.988Z,7.70
2018-03-28T23:55:19.648Z,7.70
2018-03-28T23:57:48.048Z,7.70
